3TA1 weather

CLOSED Diamond K Ranch Airport
Comfort, Texas, United States

Public forecast

Using degrees Fahrenheit for public forecast. Weather courtesy of forecast.io.

METAR (pilot weather report)

Closest report is Gillespie County Airport, 16.6 nm (30.7 km) NW. Retrieved 2019/07/20 08:35 UTC (3 minutes ago):

KT82 200835Z AUTO 16004KT 10SM CLR 23/18 A3000 RMK AO2 T02250180

TAF (pilot weather forecast)

Closest forecast is San Antonio International Airport, 32.4 nm (60.1 km) SSE. Retrieved 2019/07/20 06:28 UTC (2 hours ago):

TAF KSAT 200526Z 2006/2112 15013KT P6SM FEW250 FM200900 16008KT P6SM SCT009 BKN015 FM201400 16008KT P6SM BKN025 FM201500 15013KT P6SM SCT040 SCT250